Terminal Aerodrome Forecast
Issued by NWS Portland, OR

Home | Current Version | Previous Version | Text Only | Print | Product List | Glossary On
Versions: 1 2 3 4 5 6 7 8 9 10 11 12 13 14 15 16
000
FTUS46 KPQR 301909 AAA
TAFTTD
TAF AMD
KTTD 301909Z 3019/0118 VRB04KT P6SM SCT008
     FM302000 27006KT P6SM SCT150
     FM010600 15005KT P6SM -SHRA SCT030 OVC050
     FM011300 13006KT P6SM -RA BKN020 OVC035=

USA.gov is the U.S. government's official web portal to all federal, state and local government web resources and services.